createdAt,value
2018-08-08T00:00:18.349Z,23.42
2018-08-08T00:02:45.236Z,23.40
2018-08-08T00:05:12.139Z,23.40
2018-08-08T00:07:39.037Z,23.43
2018-08-08T00:10:05.970Z,23.39
2018-08-08T00:12:32.891Z,23.38
2018-08-08T00:14:59.790Z,23.36
2018-08-08T00:17:26.723Z,23.20
2018-08-08T00:19:53.639Z,23.18
2018-08-08T00:22:20.511Z,23.26
2018-08-08T00:24:47.412Z,23.18
2018-08-08T00:27:14.297Z,23.24
2018-08-08T00:29:41.176Z,23.23
2018-08-08T00:32:08.061Z,23.16
2018-08-08T00:34:34.946Z,23.24
2018-08-08T00:37:01.826Z,23.13
2018-08-08T00:39:28.708Z,23.16
2018-08-08T00:41:55.623Z,23.09
2018-08-08T00:44:22.507Z,23.12
2018-08-08T00:46:49.412Z,22.93
2018-08-08T00:49:16.312Z,22.98
2018-08-08T00:51:43.191Z,23.01
2018-08-08T00:54:10.088Z,22.96
2018-08-08T00:56:36.968Z,22.94
2018-08-08T00:59:03.890Z,22.88
2018-08-08T01:01:30.772Z,22.83
2018-08-08T01:03:57.672Z,22.89
2018-08-08T01:06:24.572Z,22.73
2018-08-08T01:08:51.631Z,22.51
2018-08-08T01:11:18.500Z,22.50
2018-08-08T01:13:45.439Z,22.57
2018-08-08T01:16:12.317Z,22.49
2018-08-08T01:18:39.191Z,22.41
2018-08-08T01:21:06.414Z,22.43
2018-08-08T01:23:33.303Z,22.36
2018-08-08T01:26:00.176Z,22.42
2018-08-08T01:28:27.076Z,22.39
2018-08-08T01:30:53.979Z,22.45
2018-08-08T01:33:20.864Z,22.48
2018-08-08T01:35:47.752Z,22.52
2018-08-08T01:38:14.635Z,22.48
2018-08-08T01:40:41.544Z,22.57
2018-08-08T01:43:08.452Z,22.50
2018-08-08T01:45:35.396Z,22.50
2018-08-08T01:48:02.279Z,22.35
2018-08-08T01:50:29.183Z,22.52
2018-08-08T01:52:56.059Z,22.75
2018-08-08T01:55:22.958Z,22.71
2018-08-08T01:57:49.828Z,22.64
2018-08-08T02:00:17.432Z,22.57
2018-08-08T02:02:44.367Z,22.54
2018-08-08T02:05:11.528Z,22.46
2018-08-08T02:07:38.563Z,22.38
2018-08-08T02:14:58.948Z,22.28
2018-08-08T02:17:25.823Z,22.35
2018-08-08T02:19:52.707Z,22.42
2018-08-08T02:22:19.627Z,22.49
2018-08-08T02:24:46.517Z,22.33
2018-08-08T02:27:13.407Z,22.30
2018-08-08T02:29:40.326Z,22.27
2018-08-08T02:32:07.243Z,22.34
2018-08-08T02:34:34.121Z,22.39
2018-08-08T02:37:01.078Z,22.37
2018-08-08T02:39:27.920Z,22.34
2018-08-08T02:41:54.824Z,22.42
2018-08-08T02:46:48.183Z,22.44
2018-08-08T02:49:15.079Z,22.42
2018-08-08T02:51:41.996Z,22.48
2018-08-08T02:54:08.874Z,22.54
2018-08-08T02:56:35.760Z,22.40
2018-08-08T02:59:02.672Z,22.33
2018-08-08T03:01:29.576Z,22.41
2018-08-08T03:03:56.488Z,22.40
2018-08-08T03:06:23.664Z,22.48
2018-08-08T03:08:50.557Z,22.38
2018-08-08T03:11:17.439Z,22.34
2018-08-08T03:13:44.321Z,22.36
2018-08-08T03:16:11.247Z,22.31
2018-08-08T03:18:38.127Z,22.32
2018-08-08T03:21:05.039Z,22.40
2018-08-08T03:23:31.936Z,22.37
2018-08-08T03:25:58.816Z,22.35
2018-08-08T03:28:25.711Z,22.16
2018-08-08T03:30:52.608Z,22.18
2018-08-08T03:33:19.478Z,22.17
2018-08-08T03:35:46.401Z,22.21
2018-08-08T03:38:13.296Z,22.10
2018-08-08T03:40:40.212Z,22.10
2018-08-08T03:43:07.099Z,22.13
2018-08-08T03:45:34.003Z,21.99
2018-08-08T03:48:00.907Z,22.01
2018-08-08T03:50:29.654Z,22.02
2018-08-08T03:52:56.592Z,21.96
2018-08-08T03:55:23.547Z,21.99
2018-08-08T03:57:50.499Z,22.02
2018-08-08T04:00:18.967Z,22.07
2018-08-08T04:02:46.068Z,22.14
2018-08-08T04:05:13.043Z,22.17
2018-08-08T04:07:40.021Z,22.20
2018-08-08T04:10:08.058Z,22.28
2018-08-08T04:12:35.553Z,22.34
2018-08-08T04:15:02.520Z,22.34
2018-08-08T04:17:29.432Z,22.40
2018-08-08T04:19:56.312Z,22.59
2018-08-08T04:22:23.423Z,22.51
2018-08-08T04:24:50.324Z,22.60
2018-08-08T04:27:17.547Z,22.48
2018-08-08T04:29:44.470Z,22.78
2018-08-08T04:32:11.424Z,22.78
2018-08-08T04:34:38.311Z,22.78
2018-08-08T04:37:05.224Z,22.77
2018-08-08T04:39:32.140Z,22.70
2018-08-08T04:41:59.051Z,22.62
2018-08-08T04:44:25.987Z,22.57
2018-08-08T04:46:52.914Z,22.64
2018-08-08T04:49:19.820Z,22.68
2018-08-08T04:51:46.804Z,22.74
2018-08-08T04:54:13.724Z,22.84
2018-08-08T04:56:40.644Z,22.85
2018-08-08T04:59:07.544Z,22.90
2018-08-08T05:01:34.459Z,23.12
2018-08-08T05:04:01.404Z,23.17
2018-08-08T05:06:28.317Z,23.17
2018-08-08T05:08:55.232Z,23.30
2018-08-08T05:11:22.149Z,23.50
2018-08-08T05:13:49.096Z,23.63
2018-08-08T05:16:16.003Z,23.76
2018-08-08T05:18:42.911Z,23.94
2018-08-08T05:21:09.802Z,24.14
2018-08-08T05:23:36.715Z,24.25
2018-08-08T05:26:03.676Z,24.38
2018-08-08T05:28:30.594Z,24.45
2018-08-08T05:30:57.489Z,24.52
2018-08-08T05:33:24.406Z,24.56
2018-08-08T05:35:51.303Z,24.59
2018-08-08T05:38:18.212Z,24.64
2018-08-08T05:40:45.097Z,24.70
2018-08-08T05:43:11.980Z,24.80
2018-08-08T05:45:38.891Z,24.83
2018-08-08T05:48:05.966Z,24.85
2018-08-08T05:50:32.874Z,24.84
2018-08-08T05:52:59.776Z,24.99
2018-08-08T05:55:26.703Z,25.15
2018-08-08T05:57:53.671Z,25.18
2018-08-08T06:00:24.247Z,25.21
2018-08-08T06:02:51.259Z,25.25
2018-08-08T06:05:18.204Z,25.42
2018-08-08T06:07:45.171Z,25.40
2018-08-08T06:10:12.076Z,25.35
2018-08-08T06:12:39.015Z,25.60
2018-08-08T06:15:09.104Z,25.57
2018-08-08T06:17:36.672Z,25.60
2018-08-08T06:20:05.817Z,25.71
2018-08-08T06:22:32.748Z,25.56
2018-08-08T06:24:59.652Z,25.70
2018-08-08T06:27:26.639Z,25.54
2018-08-08T06:29:53.511Z,25.74
2018-08-08T06:32:20.407Z,25.69
2018-08-08T06:34:47.352Z,25.64
2018-08-08T06:37:14.287Z,25.90
2018-08-08T06:39:41.225Z,26.16
2018-08-08T06:42:08.155Z,26.15
2018-08-08T06:44:35.091Z,26.10
2018-08-08T06:47:01.972Z,26.02
2018-08-08T06:49:28.908Z,25.83
2018-08-08T06:51:55.816Z,26.41
2018-08-08T06:54:22.730Z,26.41
2018-08-08T06:56:49.707Z,26.32
2018-08-08T06:59:16.603Z,26.33
2018-08-08T07:01:43.517Z,26.60
2018-08-08T07:04:10.447Z,26.52
2018-08-08T07:06:37.363Z,26.60
2018-08-08T07:09:06.948Z,26.69
2018-08-08T07:11:33.906Z,26.39
2018-08-08T07:14:00.840Z,26.63
2018-08-08T07:16:27.710Z,26.77
2018-08-08T07:18:54.612Z,26.82
2018-08-08T07:21:21.499Z,26.74
2018-08-08T07:23:48.387Z,26.83
2018-08-08T07:26:15.266Z,26.80
2018-08-08T07:28:42.182Z,26.90
2018-08-08T07:31:09.067Z,27.00
2018-08-08T07:33:35.979Z,27.21
2018-08-08T07:36:02.932Z,26.98
2018-08-08T07:38:29.812Z,26.50
2018-08-08T07:40:56.744Z,27.37
2018-08-08T07:43:23.635Z,27.38
2018-08-08T07:45:50.528Z,27.36
2018-08-08T07:48:17.426Z,27.67
2018-08-08T07:50:44.320Z,27.52
2018-08-08T07:53:11.235Z,27.82
2018-08-08T07:55:38.136Z,27.63
2018-08-08T07:58:05.066Z,27.68
2018-08-08T08:00:31.954Z,28.21
2018-08-08T08:02:59.467Z,28.18
2018-08-08T08:05:26.536Z,28.42
2018-08-08T08:07:53.971Z,28.16
2018-08-08T08:10:20.895Z,28.17
2018-08-08T08:12:47.835Z,28.09
2018-08-08T08:15:14.732Z,28.03
2018-08-08T08:17:42.375Z,28.16
2018-08-08T08:20:12.515Z,28.24
2018-08-08T08:22:39.756Z,28.23
2018-08-08T08:25:07.661Z,28.48
2018-08-08T08:27:34.876Z,28.53
2018-08-08T08:30:01.819Z,28.53
2018-08-08T08:32:28.703Z,28.54
2018-08-08T08:34:55.731Z,28.86
2018-08-08T08:37:22.638Z,29.24
2018-08-08T08:39:49.563Z,29.26
2018-08-08T08:42:16.473Z,29.19
2018-08-08T08:44:43.376Z,28.83
2018-08-08T08:47:10.292Z,29.25
2018-08-08T08:49:37.199Z,29.04
2018-08-08T08:52:04.344Z,28.78
2018-08-08T08:54:31.259Z,29.41
2018-08-08T08:56:58.149Z,29.79
2018-08-08T08:59:25.047Z,29.84
2018-08-08T09:01:51.979Z,29.56
2018-08-08T09:04:19.037Z,29.26
2018-08-08T09:06:45.923Z,29.91
2018-08-08T09:09:13.274Z,30.75
2018-08-08T09:11:40.304Z,30.80
2018-08-08T09:14:07.232Z,30.10
2018-08-08T09:16:34.164Z,30.56
2018-08-08T09:19:01.061Z,30.51
2018-08-08T09:21:28.209Z,30.53
2018-08-08T09:23:55.169Z,30.29
2018-08-08T09:26:22.144Z,30.04
2018-08-08T09:28:49.036Z,29.84
2018-08-08T09:31:15.972Z,29.91
2018-08-08T09:33:42.887Z,30.51
2018-08-08T09:36:09.840Z,30.81
2018-08-08T09:38:36.736Z,31.16
2018-08-08T09:41:03.648Z,30.91
2018-08-08T09:43:30.566Z,31.02
2018-08-08T09:45:57.498Z,31.58
2018-08-08T09:48:24.445Z,30.78
2018-08-08T09:50:51.361Z,31.92
2018-08-08T09:53:18.264Z,31.07
2018-08-08T09:55:45.165Z,30.70
2018-08-08T09:58:12.068Z,30.73
2018-08-08T10:00:44.736Z,30.40
2018-08-08T10:03:16.266Z,31.01
2018-08-08T10:05:43.220Z,32.30
2018-08-08T10:08:10.119Z,31.10
2018-08-08T10:10:37.020Z,30.13
2018-08-08T10:13:03.952Z,30.26
2018-08-08T10:15:30.840Z,30.27
2018-08-08T10:17:57.736Z,30.75
2018-08-08T10:20:24.632Z,29.78
2018-08-08T10:22:51.607Z,29.65
2018-08-08T10:25:18.800Z,29.44
2018-08-08T10:27:45.690Z,29.56
2018-08-08T10:30:12.751Z,29.54
2018-08-08T10:32:39.688Z,29.72
2018-08-08T10:35:07.471Z,29.84
2018-08-08T10:37:34.359Z,29.85
2018-08-08T10:40:01.260Z,30.09
2018-08-08T10:42:28.142Z,29.75
2018-08-08T10:44:55.033Z,30.25
2018-08-08T10:47:21.923Z,30.32
2018-08-08T10:49:48.836Z,30.80
2018-08-08T10:52:15.728Z,30.75
2018-08-08T10:54:42.631Z,30.84
2018-08-08T10:57:09.553Z,31.08
2018-08-08T10:59:36.470Z,31.12
2018-08-08T11:02:03.431Z,31.91
2018-08-08T11:04:30.319Z,32.18
2018-08-08T11:06:57.253Z,31.89
2018-08-08T11:09:24.128Z,32.15
2018-08-08T11:11:51.111Z,32.12
2018-08-08T11:14:17.941Z,32.07
2018-08-08T11:16:44.875Z,31.76
2018-08-08T11:19:11.737Z,31.85
2018-08-08T11:21:38.699Z,31.89
2018-08-08T11:24:05.578Z,31.84
2018-08-08T11:26:32.505Z,32.79
2018-08-08T11:28:59.391Z,31.82
2018-08-08T11:31:26.320Z,31.94
2018-08-08T11:33:53.228Z,32.76
2018-08-08T11:36:20.191Z,31.49
2018-08-08T11:38:47.140Z,32.09
2018-08-08T11:41:14.016Z,32.39
2018-08-08T11:43:40.919Z,32.55
2018-08-08T11:46:07.857Z,32.95
2018-08-08T11:48:34.733Z,31.88
2018-08-08T11:51:01.693Z,33.23
2018-08-08T11:53:28.592Z,31.62
2018-08-08T11:55:55.484Z,31.60
2018-08-08T11:58:22.368Z,31.85
2018-08-08T12:00:49.267Z,32.22
2018-08-08T12:03:16.168Z,32.28
2018-08-08T12:05:43.027Z,32.18
2018-08-08T12:08:09.904Z,32.01
2018-08-08T12:10:36.779Z,31.88
2018-08-08T12:13:03.644Z,31.55
2018-08-08T12:15:30.551Z,31.36
2018-08-08T12:17:57.492Z,31.18
2018-08-08T12:20:24.393Z,30.82
2018-08-08T12:22:51.368Z,31.20
2018-08-08T12:25:18.219Z,31.39
2018-08-08T12:27:45.186Z,31.25
2018-08-08T12:30:12.108Z,31.11
2018-08-08T12:32:39.691Z,31.26
2018-08-08T12:35:06.838Z,31.72
2018-08-08T12:37:33.796Z,31.77
2018-08-08T12:40:00.731Z,31.75
2018-08-08T12:42:27.651Z,31.89
2018-08-08T12:44:54.561Z,32.67
2018-08-08T12:47:21.783Z,33.13
2018-08-08T12:49:48.721Z,32.74
2018-08-08T12:52:15.680Z,32.49
2018-08-08T12:54:42.628Z,33.02
2018-08-08T12:57:09.548Z,33.45
2018-08-08T12:59:36.477Z,33.60
2018-08-08T13:02:03.460Z,33.36
2018-08-08T13:04:30.336Z,34.15
2018-08-08T13:06:57.280Z,33.81
2018-08-08T13:09:24.188Z,32.94
2018-08-08T13:11:51.124Z,33.55
2018-08-08T13:14:18.154Z,34.10
2018-08-08T13:16:44.968Z,33.88
2018-08-08T13:19:11.860Z,33.55
2018-08-08T13:21:38.768Z,34.01
2018-08-08T13:24:05.756Z,33.26
2018-08-08T13:26:32.608Z,33.55
2018-08-08T13:28:59.525Z,32.50
2018-08-08T13:31:26.453Z,32.84
2018-08-08T13:33:53.440Z,33.28
2018-08-08T13:36:20.341Z,33.45
2018-08-08T13:38:47.238Z,33.15
2018-08-08T13:41:14.306Z,32.91
2018-08-08T13:43:41.229Z,33.16
2018-08-08T13:46:08.160Z,32.85
2018-08-08T13:48:35.202Z,31.84
2018-08-08T13:51:02.860Z,32.47
2018-08-08T13:53:29.907Z,33.00
2018-08-08T13:55:56.817Z,32.94
2018-08-08T13:58:23.942Z,33.34
2018-08-08T14:00:50.894Z,33.07
2018-08-08T14:03:17.959Z,32.95
2018-08-08T14:05:44.956Z,32.74
2018-08-08T14:08:11.877Z,32.03
2018-08-08T14:10:38.824Z,32.32
2018-08-08T14:13:05.779Z,32.83
2018-08-08T14:15:32.811Z,32.73
2018-08-08T14:17:59.736Z,32.97
2018-08-08T14:20:26.825Z,32.88
2018-08-08T14:22:53.792Z,32.63
2018-08-08T14:25:20.771Z,31.95
2018-08-08T14:27:48.024Z,31.68
2018-08-08T14:30:14.992Z,31.58
2018-08-08T14:32:41.944Z,31.35
2018-08-08T14:35:08.888Z,31.15
2018-08-08T14:37:35.796Z,30.96
2018-08-08T14:40:03.443Z,30.86
2018-08-08T14:42:30.932Z,30.79
2018-08-08T14:44:57.880Z,30.85
2018-08-08T14:47:24.867Z,30.91
2018-08-08T14:49:51.813Z,31.24
2018-08-08T14:52:18.719Z,31.34
2018-08-08T14:54:45.650Z,31.11
2018-08-08T14:57:12.575Z,30.93
2018-08-08T14:59:39.499Z,30.81
2018-08-08T15:02:09.248Z,30.41
2018-08-08T15:04:38.124Z,30.67
2018-08-08T15:07:07.777Z,30.95
2018-08-08T15:09:37.132Z,30.93
2018-08-08T15:12:04.081Z,30.59
2018-08-08T15:14:31.022Z,30.16
2018-08-08T15:16:57.949Z,30.00
2018-08-08T15:19:27.654Z,29.91
2018-08-08T15:21:57.321Z,29.55
2018-08-08T15:24:24.261Z,29.72
2018-08-08T15:26:51.189Z,29.78
2018-08-08T15:29:18.133Z,29.32
2018-08-08T15:31:45.129Z,29.29
2018-08-08T15:34:12.098Z,29.27
2018-08-08T15:36:39.051Z,29.13
2018-08-08T15:39:07.080Z,29.75
2018-08-08T15:41:34.010Z,29.67
2018-08-08T15:44:00.970Z,29.69
2018-08-08T15:46:27.897Z,29.28
2018-08-08T15:48:55.081Z,29.38
2018-08-08T15:51:23.961Z,29.57
2018-08-08T15:53:51.084Z,29.41
2018-08-08T15:56:18.036Z,29.41
2018-08-08T15:58:45.127Z,29.28
2018-08-08T16:01:12.113Z,29.48
2018-08-08T16:03:39.088Z,28.99
2018-08-08T16:06:06.076Z,28.93
2018-08-08T16:08:33.028Z,28.93
2018-08-08T16:10:59.948Z,28.65
2018-08-08T16:13:26.982Z,28.38
2018-08-08T16:15:53.941Z,28.47
2018-08-08T16:18:21.169Z,28.54
2018-08-08T16:20:48.273Z,27.68
2018-08-08T16:23:15.355Z,27.26
2018-08-08T16:25:42.401Z,26.73
2018-08-08T16:28:09.721Z,26.77
2018-08-08T16:30:36.794Z,26.50
2018-08-08T16:33:03.780Z,26.33
2018-08-08T16:35:30.770Z,25.93
2018-08-08T16:37:57.702Z,25.33
2018-08-08T16:40:24.652Z,25.32
2018-08-08T16:42:51.560Z,25.39
2018-08-08T16:45:18.463Z,25.27
2018-08-08T16:47:45.355Z,25.37
2018-08-08T16:50:12.280Z,25.22
2018-08-08T16:52:39.184Z,25.17
2018-08-08T16:55:06.555Z,25.12
2018-08-08T16:57:33.503Z,25.16
2018-08-08T17:00:00.437Z,25.07
2018-08-08T17:02:27.376Z,25.08
2018-08-08T17:04:54.324Z,25.08
2018-08-08T17:07:21.254Z,25.24
2018-08-08T17:09:48.153Z,25.13
2018-08-08T17:12:15.056Z,25.09
2018-08-08T17:14:42.017Z,24.72
2018-08-08T17:17:08.926Z,24.65
2018-08-08T17:19:35.893Z,24.55
2018-08-08T17:22:02.864Z,24.47
2018-08-08T17:24:29.791Z,24.21
2018-08-08T17:26:56.708Z,24.20
2018-08-08T17:29:23.628Z,24.23
2018-08-08T17:31:50.572Z,24.35
2018-08-08T17:34:17.496Z,24.34
2018-08-08T17:36:44.431Z,24.61
2018-08-08T17:39:11.380Z,24.68
2018-08-08T17:41:38.428Z,24.68
2018-08-08T17:44:05.493Z,24.76
2018-08-08T17:46:33.504Z,24.58
2018-08-08T17:49:00.497Z,24.40
2018-08-08T17:51:27.438Z,24.32
2018-08-08T17:53:54.364Z,23.84
2018-08-08T17:56:21.292Z,24.00
2018-08-08T17:58:48.187Z,23.98
2018-08-08T18:01:15.112Z,23.88
2018-08-08T18:03:42.030Z,24.07
2018-08-08T18:06:08.972Z,23.88
2018-08-08T18:08:35.899Z,23.88
2018-08-08T18:11:02.820Z,23.78
2018-08-08T18:13:29.737Z,23.84
2018-08-08T18:15:56.643Z,23.80
2018-08-08T18:18:23.579Z,23.62
2018-08-08T18:20:50.551Z,23.52
2018-08-08T18:23:17.508Z,23.31
2018-08-08T18:25:44.439Z,23.32
2018-08-08T18:28:11.322Z,23.10
2018-08-08T18:30:38.212Z,23.22
2018-08-08T18:33:05.115Z,23.14
2018-08-08T18:35:32.037Z,23.19
2018-08-08T18:37:59.738Z,23.15
2018-08-08T18:40:26.572Z,23.06
2018-08-08T18:42:53.453Z,22.95
2018-08-08T18:45:20.379Z,22.92
2018-08-08T18:47:47.637Z,22.97
2018-08-08T18:50:14.789Z,22.89
2018-08-08T18:52:41.724Z,22.63
2018-08-08T18:55:08.668Z,22.65
2018-08-08T18:57:35.596Z,22.49
2018-08-08T19:00:02.535Z,22.53
2018-08-08T19:02:29.461Z,22.53
2018-08-08T19:04:56.339Z,22.36
2018-08-08T19:07:23.261Z,22.34
2018-08-08T19:09:50.149Z,22.25
2018-08-08T19:12:17.066Z,22.20
2018-08-08T19:14:43.983Z,22.13
2018-08-08T19:17:10.956Z,22.15
2018-08-08T19:19:37.901Z,22.15
2018-08-08T19:22:04.972Z,22.07
2018-08-08T19:24:31.888Z,21.98
2018-08-08T19:26:58.804Z,22.01
2018-08-08T19:29:25.704Z,21.96
2018-08-08T19:31:52.660Z,21.97
2018-08-08T19:34:19.591Z,21.82
2018-08-08T19:36:46.521Z,21.69
2018-08-08T19:39:13.460Z,21.87
2018-08-08T19:41:40.444Z,21.61
2018-08-08T19:44:07.601Z,21.60
2018-08-08T19:46:34.784Z,21.69
2018-08-08T19:49:01.700Z,21.81
2018-08-08T19:51:28.678Z,21.56
2018-08-08T19:53:55.611Z,21.62
2018-08-08T19:56:22.588Z,21.61
2018-08-08T19:58:49.515Z,21.53
2018-08-08T20:01:16.456Z,21.49
2018-08-08T20:03:43.488Z,21.53
2018-08-08T20:06:10.423Z,21.40
2018-08-08T20:08:37.444Z,21.46
2018-08-08T20:11:04.373Z,21.38
2018-08-08T20:13:31.298Z,21.39
2018-08-08T20:15:59.471Z,21.27
2018-08-08T20:18:26.412Z,21.23
2018-08-08T20:20:54.152Z,21.26
2018-08-08T20:23:21.320Z,21.16
2018-08-08T20:25:48.248Z,21.12
2018-08-08T20:28:15.824Z,21.09
2018-08-08T20:30:42.755Z,21.08
2018-08-08T20:33:09.664Z,21.03
2018-08-08T20:35:36.587Z,21.11
2018-08-08T20:38:03.532Z,20.97
2018-08-08T20:40:30.448Z,20.91
2018-08-08T20:42:57.397Z,20.87
2018-08-08T20:45:24.321Z,20.92
2018-08-08T20:47:51.258Z,20.76
2018-08-08T20:50:18.674Z,20.81
2018-08-08T20:52:45.619Z,20.92
2018-08-08T20:55:12.584Z,20.83
2018-08-08T20:57:39.511Z,20.93
2018-08-08T21:00:06.444Z,20.87
2018-08-08T21:02:33.395Z,20.64
2018-08-08T21:05:00.737Z,20.59
2018-08-08T21:07:27.665Z,20.55
2018-08-08T21:09:54.700Z,20.53
2018-08-08T21:12:21.636Z,20.48
2018-08-08T21:14:48.528Z,20.48
2018-08-08T21:17:15.471Z,20.50
2018-08-08T21:19:49.212Z,20.58
2018-08-08T21:22:16.096Z,20.58
2018-08-08T21:24:43.064Z,20.62
2018-08-08T21:27:09.940Z,20.53
2018-08-08T21:29:36.845Z,20.60
2018-08-08T21:32:03.771Z,20.56
2018-08-08T21:34:30.661Z,20.58
2018-08-08T21:36:57.573Z,20.49
2018-08-08T21:39:24.488Z,20.43
2018-08-08T21:44:25.886Z,20.31
2018-08-08T21:46:52.791Z,20.37
2018-08-08T21:49:19.689Z,20.33
2018-08-08T21:51:46.993Z,20.40
2018-08-08T21:54:25.496Z,20.41
2018-08-08T21:57:05.927Z,20.41
2018-08-08T21:59:46.393Z,20.35
2018-08-08T22:02:25.120Z,20.37
2018-08-08T22:05:03.981Z,20.37
2018-08-08T22:07:42.480Z,20.31
2018-08-08T22:10:20.974Z,20.26
2018-08-08T22:12:59.417Z,20.18
2018-08-08T22:15:37.975Z,20.24
2018-08-08T22:18:16.909Z,20.18
2018-08-08T22:20:43.858Z,20.20
2018-08-08T22:23:10.737Z,20.33
2018-08-08T22:25:37.628Z,20.23
2018-08-08T22:28:05.183Z,20.32
2018-08-08T22:30:32.097Z,20.17
2018-08-08T22:32:59.054Z,20.13
2018-08-08T22:35:25.919Z,20.19
2018-08-08T22:37:52.922Z,20.13
2018-08-08T22:40:19.815Z,20.10
2018-08-08T22:42:47.792Z,20.22
2018-08-08T22:45:14.677Z,20.09
2018-08-08T22:47:41.547Z,20.01
2018-08-08T22:50:09.456Z,19.95
2018-08-08T22:52:39.879Z,19.87
2018-08-08T22:55:06.768Z,19.95
2018-08-08T22:57:33.673Z,19.79
2018-08-08T23:00:00.564Z,19.77
2018-08-08T23:02:27.485Z,19.71
2018-08-08T23:04:54.395Z,19.62
2018-08-08T23:07:21.263Z,19.60
2018-08-08T23:09:48.177Z,19.75
2018-08-08T23:12:15.088Z,19.72
2018-08-08T23:14:42.005Z,19.72
2018-08-08T23:17:08.913Z,19.84
2018-08-08T23:19:35.815Z,19.98
2018-08-08T23:22:02.696Z,20.07
2018-08-08T23:24:29.607Z,20.03
2018-08-08T23:26:56.500Z,20.01
2018-08-08T23:29:23.367Z,20.07
2018-08-08T23:31:50.252Z,20.09
2018-08-08T23:34:17.145Z,20.18
2018-08-08T23:36:44.096Z,20.21
2018-08-08T23:39:10.980Z,20.19
2018-08-08T23:41:37.901Z,20.06
2018-08-08T23:44:04.913Z,20.06
2018-08-08T23:46:31.851Z,20.06
2018-08-08T23:48:58.759Z,20.08
2018-08-08T23:51:25.653Z,20.15
2018-08-08T23:53:52.533Z,20.29
2018-08-08T23:56:20.086Z,20.39
2018-08-08T23:58:47.104Z,20.43
